Time;durP1;ratioP1;P1;durP2;ratioP2;P2;SDS_P1;SDS_P2;PMS_P1;PMS_P2;Temp;Humidity;BMP_temperature;BMP_pressure;BME280_temperature;BME280_humidity;BME280_pressure;Samples;Min_cycle;Max_cycle;Signal;HPM_P1;HPM_P2
2023/09/19 00:01:32;;;;;;;0.10;0.10;;;;;;;14.98;62.03;99496.28;7358674;19;20006;-58
2023/09/19 00:03:58;;;;;;;0.10;0.10;;;;;;;14.95;61.14;99499.06;7363163;19;20793;-59
2023/09/19 00:06:26;;;;;;;0.00;0.00;;;;;;;14.92;61.98;99501.91;7363631;19;20018;-58
2023/09/19 00:08:54;;;;;;;0.10;0.10;;;;;;;14.81;63.46;99494.66;7361242;19;21199;-58
2023/09/19 00:11:20;;;;;;;0.10;0.10;;;;;;;14.77;63.91;99496.63;7366784;19;20037;-58
2023/09/19 00:13:49;;;;;;;0.08;0.08;;;;;;;14.84;64.36;99506.75;7362662;19;20010;-57
2023/09/19 00:16:15;;;;;;;0.10;0.10;;;;;;;14.78;64.58;99510.59;7365073;19;20342;-58
2023/09/19 00:18:40;;;;;;;0.00;0.00;;;;;;;14.77;64.40;99520.28;7349948;19;19999;-58
2023/09/19 00:21:06;;;;;;;0.10;0.10;;;;;;;14.75;64.48;99511.66;7364707;19;20038;-58
2023/09/19 00:23:32;;;;;;;0.10;0.10;;;;;;;14.74;64.64;99515.19;7362624;19;20014;-58
2023/09/19 00:26:00;;;;;;;0.10;0.10;;;;;;;14.73;64.91;99510.88;7338236;19;20015;-59
2023/09/19 00:28:29;;;;;;;0.10;0.10;;;;;;;14.71;64.78;99512.75;7354793;19;20040;-59
2023/09/19 00:30:55;;;;;;;0.10;0.10;;;;;;;14.69;65.66;99514.59;7362335;19;20014;-59
2023/09/19 00:33:22;;;;;;;0.10;0.10;;;;;;;14.67;64.36;99505.97;7325324;19;20010;-58
2023/09/19 00:35:52;;;;;;;0.10;0.10;;;;;;;14.55;65.69;99483.06;7356081;19;20010;-59
2023/09/19 00:38:21;;;;;;;0.10;0.10;;;;;;;14.65;64.77;99509.63;7357644;19;20396;-59
2023/09/19 00:40:47;;;;;;;0.10;0.10;;;;;;;14.63;65.90;99512.34;7359993;19;20395;-58
2023/09/19 00:43:13;;;;;;;0.10;0.10;;;;;;;14.63;65.78;99499.22;7360683;19;20846;-59
2023/09/19 00:45:42;;;;;;;0.10;0.10;;;;;;;14.57;65.43;99490.84;7360232;19;20011;-59
2023/09/19 00:48:09;;;;;;;0.10;0.10;;;;;;;14.46;66.86;99487.03;7357380;19;20018;-59
2023/09/19 00:50:35;;;;;;;0.00;0.00;;;;;;;14.57;66.63;99498.72;7365026;19;20010;-59
2023/09/19 00:53:00;;;;;;;0.08;0.08;;;;;;;14.45;66.47;99498.47;7366221;19;20010;-59
2023/09/19 00:55:27;;;;;;;0.10;0.10;;;;;;;14.46;67.91;99496.69;7356375;19;20510;-62
2023/09/19 00:57:56;;;;;;;0.10;0.10;;;;;;;14.46;67.62;99504.56;7364131;19;20015;-60
2023/09/19 01:00:23;;;;;;;0.00;0.00;;;;;;;14.42;67.54;99517.03;7365027;19;20861;-60
2023/09/19 01:02:49;;;;;;;0.00;0.00;;;;;;;14.38;68.37;99509.41;7367203;19;20017;-59
2023/09/19 01:05:15;;;;;;;0.10;0.10;;;;;;;14.32;68.56;99507.16;7366464;19;20010;-60
2023/09/19 01:07:40;;;;;;;0.00;0.00;;;;;;;14.32;69.29;99507.16;7367921;19;20131;-59
2023/09/19 01:10:14;;;;;;;0.10;0.10;;;;;;;14.30;69.87;99499.38;7363611;19;20010;-59
2023/09/19 01:13:12;;;;;;;0.10;0.10;;;;;;;14.30;68.69;99509.03;7361807;19;20438;-58
2023/09/19 01:15:56;;;;;;;0.00;0.00;;;;;;;14.27;71.92;99504.78;7368390;19;20438;-58
2023/09/19 01:18:53;;;;;;;0.10;0.10;;;;;;;14.22;69.38;99489.28;7365625;19;20010;-58
2023/09/19 01:21:39;;;;;;;0.08;0.08;;;;;;;14.27;69.72;99492.50;7364217;19;20015;-59
2023/09/19 01:24:49;;;;;;;0.10;0.10;;;;;;;14.27;69.35;99468.84;7365693;19;20510;-59
2023/09/19 01:27:37;;;;;;;0.00;0.00;;;;;;;14.28;72.26;99462.66;7363309;19;20692;-59
2023/09/19 01:30:24;;;;;;;0.00;0.00;;;;;;;14.28;72.49;99457.41;7367595;19;20018;-58
2023/09/19 01:32:52;;;;;;;0.10;0.10;;;;;;;14.30;74.81;99448.63;7362593;19;20470;-59
2023/09/19 01:35:18;;;;;;;;;;;;;;;14.34;70.19;99434.34;7365206;19;20021;-59
2023/09/19 01:37:43;;;;;;;0.00;0.00;;;;;;;14.31;74.83;99416.19;7368120;19;19994;-58
2023/09/19 01:40:16;;;;;;;0.10;0.10;;;;;;;14.39;74.34;99413.91;7367716;19;20102;-59
2023/09/19 01:43:08;;;;;;;0.10;0.10;;;;;;;14.42;74.37;99403.25;7367201;19;20010;-59
2023/09/19 01:46:13;;;;;;;0.00;0.00;;;;;;;14.46;73.35;99394.25;7366094;19;20021;-59
2023/09/19 01:48:49;;;;;;;0.10;0.10;;;;;;;14.46;74.85;99383.75;7368771;19;20015;-59
2023/09/19 01:51:32;;;;;;;0.03;0.03;;;;;;;14.50;74.01;99382.66;7362646;19;20010;-60
2023/09/19 01:54:10;;;;;;;0.00;0.00;;;;;;;14.51;73.68;99365.97;7364321;19;20043;-58
2023/09/19 01:56:57;;;;;;;0.10;0.10;;;;;;;14.52;72.97;99363.25;7360489;19;20044;-59
2023/09/19 01:59:33;;;;;;;0.00;0.00;;;;;;;14.51;73.90;99358.94;7359591;19;20015;-59
2023/09/19 02:02:00;;;;;;;0.10;0.10;;;;;;;14.49;75.06;99344.19;7364195;19;20010;-59
2023/09/19 02:04:26;;;;;;;0.10;0.10;;;;;;;14.50;74.79;99343.28;7362717;19;20042;-59
2023/09/19 02:06:53;;;;;;;0.00;0.00;;;;;;;14.50;74.84;99349.38;7365806;19;20006;-58
2023/09/19 02:09:18;;;;;;;0.03;0.03;;;;;;;14.46;75.47;99331.22;7365275;19;20633;-59
2023/09/19 02:11:44;;;;;;;0.10;0.10;;;;;;;14.47;75.96;99333.78;7360204;19;20018;-59
2023/09/19 02:14:09;;;;;;;0.10;0.10;;;;;;;14.44;76.13;99325.19;7364750;19;20003;-59
2023/09/19 02:16:35;;;;;;;0.10;0.10;;;;;;;14.49;75.96;99333.69;7364978;19;20114;-59
2023/09/19 02:19:00;;;;;;;0.08;0.08;;;;;;;14.51;75.53;99331.81;7366138;19;20003;-59
2023/09/19 02:21:29;;;;;;;0.10;0.10;;;;;;;14.51;76.14;99319.53;7369008;19;20021;-59
2023/09/19 02:23:55;;;;;;;0.10;0.10;;;;;;;14.52;75.87;99301.97;7367735;19;20073;-59
2023/09/19 02:26:20;;;;;;;0.10;0.10;;;;;;;14.46;75.13;99278.69;7341986;19;20014;-60
2023/09/19 02:28:46;;;;;;;0.10;0.10;;;;;;;14.52;75.01;99271.28;7365078;19;20023;-59
2023/09/19 02:31:11;;;;;;;0.00;0.00;;;;;;;14.53;75.56;99266.88;7367561;19;20019;-58
2023/09/19 02:33:37;;;;;;;0.00;0.00;;;;;;;14.25;76.06;99208.16;7368413;19;20008;-59
2023/09/19 02:36:03;;;;;;;0.10;0.10;;;;;;;14.52;76.29;99246.81;7369615;19;20487;-58
2023/09/19 02:38:29;;;;;;;0.00;0.00;;;;;;;14.47;75.50;99228.72;7374916;19;19999;-59
2023/09/19 02:40:55;;;;;;;0.10;0.10;;;;;;;14.53;75.27;99230.94;7374883;19;20078;-59
2023/09/19 02:43:23;;;;;;;0.10;0.10;;;;;;;14.54;75.32;99224.75;7366680;19;20003;-59
2023/09/19 02:45:49;;;;;;;0.00;0.00;;;;;;;14.53;74.12;99223.06;7365169;19;20010;-59
2023/09/19 02:48:16;;;;;;;0.00;0.00;;;;;;;14.52;75.16;99204.78;7364624;19;20675;-59
2023/09/19 02:50:42;;;;;;;0.08;0.08;;;;;;;14.52;75.48;99205.63;7362004;19;20014;-59
2023/09/19 02:53:07;;;;;;;0.10;0.10;;;;;;;14.52;74.38;99183.78;7364962;19;20010;-59
2023/09/19 02:55:33;;;;;;;0.10;0.10;;;;;;;14.52;75.52;99168.84;7370244;19;20549;-59
2023/09/19 02:58:00;;;;;;;0.00;0.00;;;;;;;14.47;75.47;99141.16;7363776;19;20006;-58
2023/09/19 03:00:27;;;;;;;0.00;0.00;;;;;;;14.52;74.55;99149.63;7360703;19;20875;-59
2023/09/19 03:02:55;;;;;;;0.10;0.10;;;;;;;14.55;74.76;99141.56;7359975;19;20378;-59
2023/09/19 03:05:23;;;;;;;0.00;0.00;;;;;;;14.52;75.24;99133.88;7365151;19;20502;-59
2023/09/19 03:07:50;;;;;;;0.00;0.00;;;;;;;14.52;74.94;99110.22;7361547;19;20011;-59
2023/09/19 03:10:19;;;;;;;0.10;0.10;;;;;;;14.51;75.74;99104.13;7363852;19;20019;-59
2023/09/19 03:12:46;;;;;;;0.10;0.10;;;;;;;14.43;75.58;99074.00;7360569;19;20039;-59
2023/09/19 03:15:11;;;;;;;0.10;0.10;;;;;;;14.55;75.39;99089.03;7364863;19;20355;-58
2023/09/19 03:17:37;;;;;;;0.00;0.00;;;;;;;14.56;74.33;99074.94;7365566;19;20021;-59
2023/09/19 03:20:04;;;;;;;0.10;0.10;;;;;;;14.41;73.75;99050.47;7332912;19;20040;-59
2023/09/19 03:22:29;;;;;;;0.10;0.10;;;;;;;14.58;73.33;99062.53;7365311;19;20093;-58
2023/09/19 03:24:55;;;;;;;0.10;0.10;;;;;;;14.56;75.11;99034.69;7369557;19;20088;-59
2023/09/19 03:27:20;;;;;;;0.08;0.08;;;;;;;14.42;74.12;99020.66;7370353;19;20010;-59
2023/09/19 03:29:47;;;;;;;0.10;0.10;;;;;;;14.58;74.97;99022.31;7365869;19;20502;-59
2023/09/19 03:32:12;;;;;;;0.00;0.00;;;;;;;14.58;75.33;99007.38;7371597;19;20014;-60
2023/09/19 03:34:43;;;;;;;0.10;0.10;;;;;;;14.59;74.89;98997.72;7363127;19;20009;-58
2023/09/19 03:37:09;;;;;;;0.10;0.10;;;;;;;14.58;75.32;98989.00;7368681;19;20025;-59
2023/09/19 03:39:34;;;;;;;0.10;0.10;;;;;;;14.59;75.33;98972.28;7367123;19;20044;-59
2023/09/19 03:42:01;;;;;;;0.10;0.10;;;;;;;14.59;76.55;98956.50;7366204;19;20015;-58
2023/09/19 03:44:26;;;;;;;0.05;0.05;;;;;;;14.62;75.40;98943.19;7366244;19;20038;-59
2023/09/19 03:46:51;;;;;;;0.10;0.10;;;;;;;14.60;76.45;98924.06;7367803;19;20351;-59
2023/09/19 03:49:17;;;;;;;0.08;0.08;;;;;;;14.57;76.49;98908.50;7371490;19;20006;-60
2023/09/19 03:51:42;;;;;;;0.10;0.10;;;;;;;14.66;75.73;98907.06;7365863;19;20039;-59
2023/09/19 03:54:07;;;;;;;0.10;0.10;;;;;;;14.70;74.42;98905.88;7365779;19;20644;-60
2023/09/19 03:56:33;;;;;;;0.10;0.10;;;;;;;14.69;75.31;98897.16;7365290;19;20082;-59
2023/09/19 03:58:58;;;;;;;0.10;0.10;;;;;;;14.73;74.79;98898.63;7357368;19;20007;-60
2023/09/19 04:01:24;;;;;;;0.10;0.10;;;;;;;14.70;74.83;98875.22;7367480;19;20015;-59
2023/09/19 04:03:51;;;;;;;0.10;0.10;;;;;;;14.73;75.33;98867.09;7368973;19;20475;-58
2023/09/19 04:06:17;;;;;;;0.10;0.10;;;;;;;14.77;74.92;98870.38;7369008;19;20554;-59
2023/09/19 04:08:44;;;;;;;0.10;0.10;;;;;;;14.72;75.90;98852.28;7370196;19;20401;-60
2023/09/19 04:11:10;;;;;;;0.10;0.10;;;;;;;14.67;74.85;98820.25;7366026;19;20499;-59
2023/09/19 04:13:36;;;;;;;0.10;0.10;;;;;;;14.84;74.60;98858.47;7363714;19;20021;-59
2023/09/19 04:16:02;;;;;;;0.10;0.10;;;;;;;14.88;74.61;98838.09;7367985;19;20466;-60
2023/09/19 04:18:30;;;;;;;0.00;0.00;;;;;;;14.90;75.48;98825.66;7371597;19;20206;-60
2023/09/19 04:20:56;;;;;;;0.10;0.10;;;;;;;14.88;75.96;98803.91;7370669;19;20006;-60
2023/09/19 04:23:21;;;;;;;0.10;0.10;;;;;;;14.94;75.15;98795.59;7367074;19;20372;-60
2023/09/19 04:25:48;;;;;;;0.00;0.00;;;;;;;14.96;75.45;98784.03;7367029;19;20021;-60
2023/09/19 04:28:13;;;;;;;0.10;0.10;;;;;;;14.99;75.23;98781.19;7373890;19;20010;-59
2023/09/19 04:30:41;;;;;;;0.10;0.10;;;;;;;15.00;75.59;98766.25;7370045;19;20121;-60
2023/09/19 04:33:07;;;;;;;0.10;0.10;;;;;;;14.98;75.51;98755.84;7372548;19;20006;-60
2023/09/19 04:35:33;;;;;;;0.00;0.00;;;;;;;14.96;75.61;98723.59;7377749;19;20010;-61
2023/09/19 04:37:58;;;;;;;0.05;0.05;;;;;;;15.14;75.87;98734.53;7369130;19;20006;-60
2023/09/19 04:40:26;;;;;;;0.10;0.10;;;;;;;15.16;76.42;98727.41;7371036;19;20010;-60
2023/09/19 04:42:58;;;;;;;0.10;0.10;;;;;;;15.23;75.55;98717.25;7364801;19;21814;-60
2023/09/19 04:45:24;;;;;;;0.05;0.05;;;;;;;15.18;75.79;98688.69;7369067;19;20484;-60
2023/09/19 04:47:49;;;;;;;0.10;0.10;;;;;;;15.25;75.96;98716.19;7360560;19;20014;-60
2023/09/19 04:50:16;;;;;;;0.10;0.10;;;;;;;15.30;75.99;98711.44;7371423;19;20017;-61
2023/09/19 04:52:44;;;;;;;0.10;0.10;;;;;;;15.24;76.52;98688.22;7369775;19;20023;-61
2023/09/19 04:55:16;;;;;;;0.10;0.10;;;;;;;15.40;76.18;98679.19;7369733;19;20467;-61
2023/09/19 04:57:47;;;;;;;0.10;0.10;;;;;;;15.42;77.01;98698.34;7361405;19;20517;-60
2023/09/19 05:00:22;;;;;;;0.10;0.10;;;;;;;15.45;76.45;98691.03;7370141;19;20018;-61
2023/09/19 05:02:56;;;;;;;0.10;0.10;;;;;;;15.44;77.03;98678.00;7369465;19;20015;-61
2023/09/19 05:05:22;;;;;;;0.10;0.10;;;;;;;15.49;77.08;98692.50;7371067;19;20399;-60
2023/09/19 05:07:48;;;;;;;0.10;0.10;;;;;;;15.44;76.82;98673.59;7373981;19;20019;-61
2023/09/19 05:10:14;;;;;;;0.10;0.10;;;;;;;15.58;76.53;98676.03;7373567;19;20006;-61
2023/09/19 05:12:40;;;;;;;0.10;0.10;;;;;;;15.59;77.21;98668.97;7369130;19;20023;-61
2023/09/19 05:15:07;;;;;;;0.00;0.00;;;;;;;15.62;77.11;98655.59;7371263;19;20013;-60
2023/09/19 05:17:33;;;;;;;0.10;0.10;;;;;;;15.66;77.04;98645.69;7373563;19;20446;-61
2023/09/19 05:19:58;;;;;;;0.10;0.10;;;;;;;15.71;77.34;98662.81;7367466;19;20532;-60
2023/09/19 05:22:26;;;;;;;0.10;0.10;;;;;;;15.71;77.48;98649.66;7368772;19;20080;-61
2023/09/19 05:24:52;;;;;;;0.10;0.10;;;;;;;15.67;77.75;98642.97;7369868;19;20032;-61
2023/09/19 05:27:18;;;;;;;0.00;0.00;;;;;;;15.74;77.34;98636.25;7368431;19;20014;-61
2023/09/19 05:29:44;;;;;;;0.10;0.10;;;;;;;15.67;77.35;98621.91;7376450;19;20048;-61
2023/09/19 05:32:10;;;;;;;0.10;0.10;;;;;;;15.87;77.52;98637.97;7367379;19;20011;-61
2023/09/19 05:34:36;;;;;;;0.10;0.10;;;;;;;15.86;77.62;98631.00;7368511;19;20018;-61
2023/09/19 05:37:02;;;;;;;0.10;0.10;;;;;;;15.93;78.50;98642.75;7365892;19;20113;-60
2023/09/19 05:39:28;;;;;;;0.10;0.10;;;;;;;15.88;78.44;98621.19;7357384;19;20103;-61
2023/09/19 05:41:53;;;;;;;0.00;0.00;;;;;;;15.78;78.18;98577.16;7371242;19;20011;-61
2023/09/19 05:44:19;;;;;;;0.10;0.10;;;;;;;15.98;78.01;98622.16;7373211;19;20375;-61
2023/09/19 05:46:45;;;;;;;0.10;0.10;;;;;;;16.02;78.06;98589.38;7365676;19;20010;-60
2023/09/19 05:49:11;;;;;;;0.00;0.00;;;;;;;16.08;78.24;98594.16;7365343;19;20027;-60
2023/09/19 05:51:36;;;;;;;0.10;0.10;;;;;;;16.11;78.18;98583.38;7368318;19;20014;-60
2023/09/19 05:54:02;;;;;;;0.00;0.00;;;;;;;16.13;78.57;98594.63;7370404;19;20024;-62
2023/09/19 05:56:27;;;;;;;0.10;0.10;;;;;;;16.17;78.02;98619.75;7366038;19;20015;-62
2023/09/19 05:58:53;;;;;;;0.10;0.10;;;;;;;16.19;78.28;98640.69;7361977;19;20439;-62
2023/09/19 06:01:19;;;;;;;0.10;0.10;;;;;;;16.23;78.60;98606.09;7366290;19;20744;-62
2023/09/19 06:03:44;;;;;;;0.10;0.10;;;;;;;16.28;78.27;98611.84;7369225;19;20014;-62
2023/09/19 06:06:10;;;;;;;0.10;0.10;;;;;;;16.30;78.27;98609.91;7367536;19;20107;-62
2023/09/19 06:08:35;;;;;;;0.10;0.10;;;;;;;16.28;78.57;98601.31;7367127;19;20018;-62
2023/09/19 06:11:00;;;;;;;0.10;0.10;;;;;;;16.34;78.50;98608.72;7366892;19;20021;-63
2023/09/19 06:13:29;;;;;;;0.10;0.10;;;;;;;16.26;78.96;98584.78;7368886;19;20024;-63
2023/09/19 06:15:56;;;;;;;0.10;0.10;;;;;;;16.40;78.74;98617.09;7369449;19;20007;-63
2023/09/19 06:18:26;;;;;;;0.05;0.05;;;;;;;16.47;78.58;98626.16;7374661;19;20442;-63
2023/09/19 06:20:51;;;;;;;0.10;0.10;;;;;;;16.49;78.51;98613.72;7370370;19;20035;-63
2023/09/19 06:23:17;;;;;;;0.10;0.10;;;;;;;16.53;78.42;98609.88;7368242;19;20078;-64
2023/09/19 06:25:43;;;;;;;0.10;0.10;;;;;;;16.51;78.27;98609.16;7367013;19;20011;-63
2023/09/19 06:28:12;;;;;;;0.10;0.10;;;;;;;16.56;78.78;98599.09;7367812;19;20562;-64
2023/09/19 06:30:40;;;;;;;0.10;0.10;;;;;;;16.48;79.01;98580.44;7366396;19;20018;-63
2023/09/19 06:33:06;;;;;;;0.10;0.10;;;;;;;16.64;78.46;98596.69;7368699;19;20359;-63
2023/09/19 06:35:33;;;;;;;0.10;0.10;;;;;;;16.66;78.80;98610.56;7367908;19;20006;-63
2023/09/19 06:38:02;;;;;;;0.10;0.10;;;;;;;16.70;78.53;98606.72;7370831;19;20018;-63
2023/09/19 06:40:28;;;;;;;0.10;0.10;;;;;;;16.59;78.49;98588.31;7367427;19;20006;-62
2023/09/19 06:42:54;;;;;;;0.10;0.10;;;;;;;16.74;78.71;98602.91;7366459;19;20530;-61
2023/09/19 06:45:21;;;;;;;0.10;0.10;;;;;;;16.78;78.95;98608.78;7366050;19;20010;-61
2023/09/19 06:47:50;;;;;;;0.03;0.03;;;;;;;16.82;78.63;98605.72;7371192;19;20022;-60
2023/09/19 06:50:22;;;;;;;0.10;0.10;;;;;;;16.87;78.59;98623.81;7371880;19;20014;-62
2023/09/19 06:52:49;;;;;;;0.00;0.00;;;;;;;16.90;78.96;98618.31;7373647;19;20018;-61
2023/09/19 06:55:16;;;;;;;0.10;0.10;;;;;;;16.93;78.90;98606.66;7364903;19;20014;-61
2023/09/19 06:57:43;;;;;;;0.10;0.10;;;;;;;16.88;79.01;98583.34;7369002;19;20006;-62
2023/09/19 07:00:15;;;;;;;0.10;0.10;;;;;;;16.99;78.51;98593.00;7371358;19;20006;-62
2023/09/19 07:02:44;;;;;;;0.10;0.10;;;;;;;16.96;78.93;98595.88;7366468;19;20010;-62
2023/09/19 07:05:10;;;;;;;0.00;0.00;;;;;;;16.95;78.73;98599.47;7364703;19;20021;-62
2023/09/19 07:07:36;;;;;;;0.10;0.10;;;;;;;17.01;79.09;98604.22;7367882;19;20018;-62
2023/09/19 07:10:02;;;;;;;0.10;0.10;;;;;;;17.13;79.02;98613.75;7364082;19;20089;-62
2023/09/19 07:12:28;;;;;;;0.05;0.05;;;;;;;17.19;78.72;98629.09;7361712;19;20031;-62
2023/09/19 07:14:53;;;;;;;0.10;0.10;;;;;;;17.23;78.89;98630.50;7362745;19;20469;-63
2023/09/19 07:17:19;;;;;;;0.10;0.10;;;;;;;17.28;79.14;98627.47;7366364;19;20010;-63
2023/09/19 07:19:45;;;;;;;0.10;0.10;;;;;;;17.29;79.14;98629.16;7362460;19;20079;-62
2023/09/19 07:22:10;;;;;;;0.05;0.05;;;;;;;17.34;79.08;98651.56;7358864;19;20470;-62
2023/09/19 07:24:37;;;;;;;0.10;0.10;;;;;;;17.37;78.78;98661.84;7362572;19;20006;-63
2023/09/19 07:27:02;;;;;;;0.10;0.10;;;;;;;17.22;79.36;98620.91;7365866;19;20363;-62
2023/09/19 07:29:28;;;;;;;0.10;0.10;;;;;;;17.35;79.14;98644.47;7369449;19;20350;-62
2023/09/19 07:31:53;;;;;;;0.10;0.10;;;;;;;17.42;79.16;98647.44;7361505;19;20007;-62
2023/09/19 07:34:21;;;;;;;0.10;0.10;;;;;;;17.31;79.13;98638.63;7364983;19;20587;-62
2023/09/19 07:36:47;;;;;;;0.10;0.10;;;;;;;17.48;78.99;98654.81;7371947;19;20011;-62
2023/09/19 07:39:13;;;;;;;0.10;0.10;;;;;;;17.50;79.00;98645.00;7369275;19;20041;-62
2023/09/19 07:41:38;;;;;;;0.10;0.10;;;;;;;17.53;79.18;98661.38;7364095;19;20014;-62
2023/09/19 07:44:04;;;;;;;0.10;0.10;;;;;;;17.57;79.36;98664.63;7363804;19;20511;-63
2023/09/19 07:46:31;;;;;;;0.10;0.10;;;;;;;17.60;79.11;98653.81;7335235;19;19998;-63
2023/09/19 07:48:56;;;;;;;0.10;0.10;;;;;;;17.63;79.16;98661.47;7369031;19;20032;-63
2023/09/19 07:51:22;;;;;;;0.08;0.08;;;;;;;17.66;79.14;98687.59;7370510;19;20010;-63
2023/09/19 07:53:48;;;;;;;0.10;0.10;;;;;;;17.67;79.22;98691.91;7365175;19;20022;-63
2023/09/19 07:56:13;;;;;;;0.10;0.10;;;;;;;17.66;79.51;98673.56;7365021;19;20105;-63
2023/09/19 07:58:42;;;;;;;0.10;0.10;;;;;;;17.78;79.86;98672.56;7361893;19;20363;-63
2023/09/19 08:01:10;;;;;;;0.10;0.10;;;;;;;17.80;79.52;98675.94;7362137;19;20797;-64
2023/09/19 08:03:40;;;;;;;0.00;0.00;;;;;;;17.85;79.43;98700.97;7366469;19;20006;-63
2023/09/19 08:06:06;;;;;;;0.10;0.10;;;;;;;17.89;79.99;98710.31;7368940;19;20038;-64
2023/09/19 08:08:34;;;;;;;0.10;0.10;;;;;;;17.86;79.93;98673.59;7374134;19;20098;-64
2023/09/19 08:10:59;;;;;;;0.10;0.10;;;;;;;18.07;79.49;98693.84;7366013;19;20021;-65
2023/09/19 08:13:25;;;;;;;0.10;0.10;;;;;;;18.13;79.81;98709.16;7364819;19;20006;-64
2023/09/19 08:15:53;;;;;;;0.10;0.10;;;;;;;18.20;79.73;98699.78;7362675;19;20006;-64
2023/09/19 08:18:19;;;;;;;0.10;0.10;;;;;;;18.26;79.59;98727.47;7365777;19;20017;-64
2023/09/19 08:20:52;;;;;;;0.10;0.10;;;;;;;18.24;79.77;98703.78;7359448;19;20003;-64
2023/09/19 08:23:19;;;;;;;0.13;0.13;;;;;;;18.36;79.40;98700.13;7370172;19;20353;-63
2023/09/19 08:25:46;;;;;;;0.10;0.10;;;;;;;18.41;79.10;98711.13;7364327;19;20008;-64
2023/09/19 08:28:13;;;;;;;0.10;0.10;;;;;;;18.28;78.76;98692.00;7363353;19;20014;-63
2023/09/19 08:30:40;;;;;;;0.10;0.10;;;;;;;18.41;79.17;98697.91;7362136;19;20562;-63
2023/09/19 08:33:07;;;;;;;0.10;0.10;;;;;;;18.45;78.84;98705.56;7356752;19;20018;-64
2023/09/19 08:35:33;;;;;;;0.10;0.10;;;;;;;18.46;79.05;98712.53;7371894;19;20015;-63
2023/09/19 08:38:03;;;;;;;0.03;0.03;;;;;;;18.36;78.71;98692.19;7364379;19;21217;-64
2023/09/19 08:40:33;;;;;;;0.05;0.05;;;;;;;18.49;78.95;98720.19;7361495;19;20010;-63
2023/09/19 08:43:00;;;;;;;0.10;0.10;;;;;;;18.50;78.85;98719.19;7361840;19;20021;-63
2023/09/19 08:45:28;;;;;;;0.10;0.10;;;;;;;18.51;78.84;98718.25;7364106;19;20073;-64
2023/09/19 08:48:11;;;;;;;0.10;0.10;;;;;;;18.55;78.74;98712.56;7360816;19;20074;-64
2023/09/19 08:50:47;;;;;;;0.10;0.10;;;;;;;18.57;79.19;98728.28;7363802;19;20787;-63
2023/09/19 08:53:23;;;;;;;0.10;0.10;;;;;;;18.50;79.15;98714.78;7365128;19;20032;-63
2023/09/19 08:55:51;;;;;;;0.10;0.10;;;;;;;18.65;79.20;98728.44;7361185;19;20086;-64
2023/09/19 08:58:21;;;;;;;0.05;0.05;;;;;;;18.69;79.03;98737.81;7363658;19;20560;-64
2023/09/19 09:00:49;;;;;;;0.10;0.10;;;;;;;18.60;79.14;98718.28;7361665;19;20006;-64
2023/09/19 09:03:19;;;;;;;0.10;0.10;;;;;;;18.74;79.13;98742.69;7363496;19;20082;-64
2023/09/19 09:05:47;;;;;;;0.10;0.10;;;;;;;18.79;79.23;98736.03;7360718;19;20478;-64
2023/09/19 09:08:14;;;;;;;0.10;0.10;;;;;;;18.82;78.65;98743.72;7363939;19;20348;-65
2023/09/19 09:10:40;;;;;;;0.10;0.10;;;;;;;18.84;78.82;98744.41;7360114;19;20010;-64
2023/09/19 09:13:06;;;;;;;0.10;0.10;;;;;;;18.81;78.74;98742.03;7357339;19;20023;-64
2023/09/19 09:15:36;;;;;;;0.10;0.10;;;;;;;18.88;78.93;98753.75;7361884;19;20095;-64
2023/09/19 09:18:02;;;;;;;0.08;0.08;;;;;;;18.82;78.63;98758.75;7363748;19;20094;-65
2023/09/19 09:20:28;;;;;;;0.10;0.10;;;;;;;18.88;78.97;98761.69;7367467;19;20010;-63
2023/09/19 09:22:55;;;;;;;0.10;0.10;;;;;;;18.91;79.20;98761.41;7369648;19;20012;-64
2023/09/19 09:25:24;;;;;;;;;;;;;;;19.05;78.46;98767.28;7373690;19;20659;-64
2023/09/19 09:28:07;;;;;;;0.10;0.10;;;;;;;19.08;78.18;98767.84;7368838;19;19935;-63
2023/09/19 09:30:37;;;;;;;0.10;0.10;;;;;;;19.04;78.86;98749.75;7368421;19;20050;-64
2023/09/19 09:33:13;;;;;;;0.10;0.10;;;;;;;19.10;78.91;98757.13;7370687;19;20010;-63
2023/09/19 09:36:00;;;;;;;0.10;0.10;;;;;;;19.13;78.81;98751.56;7369682;19;20485;-62
2023/09/19 09:38:32;;;;;;;0.10;0.10;;;;;;;19.13;78.75;98751.56;7371112;19;20051;-63
2023/09/19 09:41:06;;;;;;;0.10;0.10;;;;;;;19.10;78.92;98742.09;7367519;19;20017;-63
2023/09/19 09:43:36;;;;;;;0.10;0.10;;;;;;;19.15;79.26;98741.69;7373611;19;20015;-63
2023/09/19 09:49:11;;;;;;;0.10;0.10;;;;;;;19.24;78.94;98748.81;7367847;19;20007;-64
2023/09/19 09:51:33;;;;;;;0.03;0.03;;;;;;;19.31;78.95;98749.94;7370425;19;20478;-65
2023/09/19 09:54:16;;;;;;;0.10;0.10;;;;;;;19.43;78.86;98771.81;7363484;19;20006;-63
2023/09/19 09:56:59;;;;;;;0.10;0.10;;;;;;;19.51;78.98;98776.41;7368377;19;20006;-63
2023/09/19 09:59:50;;;;;;;0.10;0.10;;;;;;;19.53;79.21;98766.53;7368346;19;20590;-64
2023/09/19 10:02:24;;;;;;;0.10;0.10;;;;;;;19.57;79.30;98779.34;7367273;19;20331;-64
2023/09/19 10:05:07;;;;;;;0.10;0.10;;;;;;;19.67;79.22;98776.75;7369461;19;20084;-64
2023/09/19 10:07:35;;;;;;;0.10;0.10;;;;;;;19.71;78.61;98772.81;7367375;19;20037;-64
2023/09/19 10:10:28;;;;;;;0.10;0.10;;;;;;;19.79;78.89;98757.06;7369098;19;20022;-65
2023/09/19 10:12:56;;;;;;;0.10;0.10;;;;;;;19.83;78.70;98774.34;7366979;19;20010;-64
2023/09/19 10:15:26;;;;;;;0.10;0.10;;;;;;;19.90;79.07;98754.25;7367318;19;20015;-64
2023/09/19 10:17:59;;;;;;;0.10;0.10;;;;;;;19.87;78.72;98786.34;7374079;19;20031;-64
2023/09/19 10:20:37;;;;;;;0.10;0.10;;;;;;;20.00;79.30;98793.16;7369216;19;20768;-65
2023/09/19 10:23:12;;;;;;;0.10;0.10;;;;;;;20.08;78.80;98790.66;7368665;19;20019;-65
2023/09/19 10:25:42;;;;;;;0.10;0.10;;;;;;;20.14;78.52;98800.69;7366239;19;20769;-65
2023/09/19 10:28:13;;;;;;;0.10;0.10;;;;;;;20.10;78.00;98792.16;7374556;19;20014;-65
2023/09/19 10:30:45;;;;;;;0.10;0.10;;;;;;;20.16;78.45;98804.00;7373698;19;20103;-64
2023/09/19 10:33:14;;;;;;;0.10;0.10;;;;;;;20.18;77.85;98791.47;7366833;19;20845;-65
2023/09/19 10:35:45;;;;;;;0.10;0.10;;;;;;;20.17;77.90;98788.00;7363833;19;20057;-65
2023/09/19 10:38:11;;;;;;;0.10;0.10;;;;;;;20.14;77.88;98804.16;7370025;19;20110;-65
2023/09/19 10:40:42;;;;;;;0.10;0.10;;;;;;;20.17;78.24;98800.38;7360307;19;20007;-65
2023/09/19 10:43:20;;;;;;;0.10;0.10;;;;;;;20.02;78.04;98777.94;7366716;19;20033;-64
2023/09/19 10:45:49;;;;;;;0.10;0.10;;;;;;;20.11;78.07;98807.06;7367172;19;20019;-65
2023/09/19 10:48:18;;;;;;;0.10;0.10;;;;;;;20.11;78.35;98795.66;7368008;19;20015;-65
2023/09/19 10:50:49;;;;;;;0.10;0.10;;;;;;;20.00;78.12;98787.84;7367655;19;20131;-64
2023/09/19 10:53:16;;;;;;;0.10;0.10;;;;;;;20.06;77.90;98789.94;7369951;19;20013;-65
2023/09/19 10:55:51;;;;;;;0.10;0.10;;;;;;;20.11;78.28;98816.84;7362094;19;20021;-65
2023/09/19 10:58:34;;;;;;;0.10;0.10;;;;;;;20.06;77.99;98808.47;7369126;19;20010;-65
2023/09/19 11:01:06;;;;;;;0.10;0.10;;;;;;;19.96;78.25;98803.19;7368154;19;20369;-65
2023/09/19 11:03:33;;;;;;;0.10;0.10;;;;;;;19.96;78.06;98806.69;7366798;19;20513;-63
2023/09/19 11:06:05;;;;;;;0.10;0.10;;;;;;;20.02;77.76;98807.09;7367322;19;20489;-63
2023/09/19 11:11:38;;;;;;;0.10;0.10;;;;;;;19.90;77.69;98804.59;7352745;19;20014;-62
2023/09/19 11:14:29;;;;;;;0.10;0.10;;;;;;;19.85;77.63;98806.00;7366563;19;20011;-62
2023/09/19 11:17:15;;;;;;;0.10;0.10;;;;;;;19.77;77.98;98809.34;7371921;19;20013;-62
2023/09/19 11:25:34;;;;;;;;;;;;;;;19.63;78.09;98813.25;7368627;19;20456;-62
2023/09/19 11:28:05;;;;;;;0.10;0.10;;;;;;;19.61;78.22;98809.03;7363978;19;19919;-62
2023/09/19 11:30:35;;;;;;;0.10;0.10;;;;;;;19.53;78.74;98807.06;7362232;19;20374;-62
2023/09/19 11:33:31;;;;;;;0.10;0.10;;;;;;;19.56;78.90;98806.78;7366028;19;20015;-62
2023/09/19 11:36:12;;;;;;;0.10;0.10;;;;;;;19.54;78.70;98799.97;7365791;19;20348;-61
2023/09/19 11:41:20;;;;;;;0.10;0.10;;;;;;;19.54;79.84;98802.59;7363756;19;19991;-62
2023/09/19 11:43:46;;;;;;;0.10;0.10;;;;;;;19.50;79.95;98787.97;7363950;19;20947;-62
2023/09/19 11:46:16;;;;;;;0.10;0.10;;;;;;;19.55;80.35;98793.69;7364244;19;20082;-61
2023/09/19 11:48:44;;;;;;;0.10;0.10;;;;;;;19.59;80.86;98795.09;7373104;19;20006;-61
2023/09/19 11:51:26;;;;;;;0.10;0.10;;;;;;;19.69;80.62;98785.38;7370070;19;20078;-62
2023/09/19 11:53:52;;;;;;;0.10;0.10;;;;;;;19.76;80.57;98802.34;7365768;19;20748;-62
2023/09/19 11:56:24;;;;;;;0.10;0.10;;;;;;;19.85;80.74;98796.22;7368125;19;20018;-62
2023/09/19 11:58:54;;;;;;;0.00;0.00;;;;;;;19.86;80.55;98786.47;7364314;19;20013;-63